Time;durP1;ratioP1;P1;durP2;ratioP2;P2;SDS_P1;SDS_P2;PMS_P1;PMS_P2;Temp;Humidity;BMP_temperature;BMP_pressure;BME280_temperature;BME280_humidity;BME280_pressure;Samples;Min_cycle;Max_cycle;Signal;HPM_P1;HPM_P2
2021/03/02 00:02:04;;;;;;;;;54.67;48.00;;;;;;;;5026118;28;8813;-72
2021/03/02 00:04:31;;;;;;;;;59.33;47.33;;;;;;;;5024812;28;8864;-74
2021/03/02 00:06:59;;;;;;;;;54.33;46.00;;;;;;;;5024959;28;8888;-73
2021/03/02 00:09:27;;;;;;;;;53.33;46.67;;;;;;;;5015538;28;8904;-76
2021/03/02 00:11:55;;;;;;;;;62.00;47.67;;;;;;;;5022673;28;8864;-73
2021/03/02 00:14:22;;;;;;;;;55.67;45.67;;;;;;;;5026402;28;8853;-72
2021/03/02 00:16:55;;;;;;;;;64.00;50.00;;;;;;;;5025180;28;9047;-72
2021/03/02 00:19:28;;;;;;;;;60.33;49.00;;;;;;;;5025665;28;8922;-72
2021/03/02 00:22:03;;;;;;;;;66.00;50.33;;;;;;;;5025096;28;8933;-74
2021/03/02 00:24:33;;;;;;;;;66.33;48.67;;;;;;;;5025959;28;8875;-73
2021/03/02 00:26:59;;;;;;;;;64.00;54.00;;;;;;;;5023283;28;8876;-76
2021/03/02 00:29:27;;;;;;;;;59.00;49.67;;;;;;;;5028765;28;8864;-80
2021/03/02 00:31:54;;;;;;;;;65.33;52.00;;;;;;;;5031720;28;8847;-77
2021/03/02 00:34:20;;;;;;;;;47.33;44.00;;;;;;;;5026626;28;8868;-75
2021/03/02 00:36:47;;;;;;;;;58.00;47.00;;;;;;;;5026186;28;8849;-74
2021/03/02 00:39:15;;;;;;;;;64.00;49.00;;;;;;;;5023919;28;8886;-77
2021/03/02 00:41:43;;;;;;;;;63.67;49.33;;;;;;;;5022039;28;8986;-74
2021/03/02 00:44:09;;;;;;;;;69.33;55.00;;;;;;;;5029621;28;9555;-74
2021/03/02 00:46:36;;;;;;;;;56.00;47.00;;;;;;;;5024446;28;8958;-73
2021/03/02 00:49:03;;;;;;;;;68.00;55.00;;;;;;;;5024989;28;8861;-74
2021/03/02 00:51:31;;;;;;;;;78.67;60.67;;;;;;;;5019856;28;8886;-72
2021/03/02 00:53:58;;;;;;;;;70.00;55.00;;;;;;;;5022981;28;8837;-77
2021/03/02 00:56:25;;;;;;;;;53.00;46.00;;;;;;;;5024030;28;8893;-73
2021/03/02 00:58:52;;;;;;;;;61.00;49.67;;;;;;;;5025249;28;8864;-73
2021/03/02 01:01:19;;;;;;;;;68.00;52.33;;;;;;;;5026884;28;8837;-74
2021/03/02 01:03:46;;;;;;;;;59.33;49.00;;;;;;;;5025115;28;8864;-74
2021/03/02 01:06:13;;;;;;;;;53.00;45.33;;;;;;;;5020262;28;8875;-73
2021/03/02 01:08:39;;;;;;;;;64.00;51.67;;;;;;;;5024321;28;8940;-73
2021/03/02 01:11:06;;;;;;;;;62.00;47.33;;;;;;;;5006474;28;8975;-73
2021/03/02 01:13:34;;;;;;;;;63.33;52.00;;;;;;;;5025185;28;8881;-73
2021/03/02 01:16:00;;;;;;;;;58.33;47.33;;;;;;;;5028705;28;8996;-72
2021/03/02 01:18:27;;;;;;;;;51.67;43.33;;;;;;;;5023447;28;8978;-73
2021/03/02 01:20:54;;;;;;;;;65.00;53.33;;;;;;;;5032303;28;8881;-74
2021/03/02 01:23:21;;;;;;;;;54.00;42.67;;;;;;;;5023093;28;8861;-72
2021/03/02 01:25:47;;;;;;;;;58.00;50.67;;;;;;;;5019513;28;8970;-74
2021/03/02 01:28:14;;;;;;;;;48.67;42.33;;;;;;;;5022242;28;8938;-73
2021/03/02 01:30:42;;;;;;;;;58.33;48.67;;;;;;;;5022456;28;8849;-74
2021/03/02 01:33:09;;;;;;;;;71.00;53.00;;;;;;;;5019604;28;8901;-71
2021/03/02 01:35:35;;;;;;;;;61.00;47.67;;;;;;;;5028206;28;9646;-73
2021/03/02 01:38:02;;;;;;;;;57.00;43.33;;;;;;;;5025261;28;8906;-73
2021/03/02 01:40:30;;;;;;;;;67.67;52.67;;;;;;;;5022517;28;8981;-74
2021/03/02 01:42:56;;;;;;;;;60.33;52.33;;;;;;;;5023522;28;8876;-73
2021/03/02 01:45:23;;;;;;;;;56.00;50.67;;;;;;;;5025556;28;8875;-73
2021/03/02 01:47:52;;;;;;;;;53.00;47.00;;;;;;;;5024341;28;8939;-72
2021/03/02 01:50:20;;;;;;;;;66.67;48.33;;;;;;;;5024703;28;8926;-72
2021/03/02 01:52:47;;;;;;;;;53.33;45.67;;;;;;;;5020027;28;8850;-72
2021/03/02 01:55:16;;;;;;;;;66.67;48.33;;;;;;;;5018692;28;9139;-72
2021/03/02 01:57:43;;;;;;;;;50.67;46.00;;;;;;;;5021961;28;8864;-76
2021/03/02 02:00:14;;;;;;;;;46.33;44.33;;;;;;;;5029561;28;8870;-72
2021/03/02 02:02:45;;;;;;;;;63.33;53.67;;;;;;;;5028104;28;8845;-73
2021/03/02 02:05:14;;;;;;;;;70.33;52.33;;;;;;;;5024249;28;8880;-72
2021/03/02 02:07:44;;;;;;;;;65.67;52.67;;;;;;;;5024760;28;8867;-73
2021/03/02 02:10:14;;;;;;;;;59.67;49.00;;;;;;;;5016913;28;9032;-73
2021/03/02 02:12:42;;;;;;;;;65.33;54.33;;;;;;;;5023379;28;8949;-73
2021/03/02 02:15:14;;;;;;;;;65.33;53.67;;;;;;;;5023859;28;8869;-72
2021/03/02 02:17:44;;;;;;;;;48.33;46.67;;;;;;;;5007889;28;8861;-74
2021/03/02 02:20:16;;;;;;;;;52.00;48.33;;;;;;;;5017906;28;8878;-73
2021/03/02 02:23:04;;;;;;;;;49.67;47.67;;;;;;;;5023337;28;8864;-73
2021/03/02 02:25:41;;;;;;;;;60.00;52.00;;;;;;;;4980598;28;8856;-75
2021/03/02 02:28:11;;;;;;;;;51.00;47.67;;;;;;;;5019939;28;8934;-74
2021/03/02 02:30:39;;;;;;;;;48.67;46.00;;;;;;;;5023833;28;8833;-75
2021/03/02 02:33:08;;;;;;;;;50.33;48.00;;;;;;;;5026932;28;8867;-75
2021/03/02 02:35:36;;;;;;;;;52.67;48.33;;;;;;;;5023372;28;8880;-73
2021/03/02 02:38:04;;;;;;;;;48.33;46.67;;;;;;;;5024149;28;8887;-73
2021/03/02 02:40:31;;;;;;;;;47.67;45.33;;;;;;;;5022661;28;8928;-75
2021/03/02 02:42:58;;;;;;;;;43.00;41.00;;;;;;;;5021569;28;9038;-74
2021/03/02 02:45:26;;;;;;;;;50.33;47.33;;;;;;;;5014691;28;8857;-75
2021/03/02 02:47:56;;;;;;;;;45.00;43.67;;;;;;;;5024264;28;8945;-74
2021/03/02 02:50:23;;;;;;;;;47.00;45.67;;;;;;;;5024103;28;8976;-73
2021/03/02 02:52:50;;;;;;;;;53.33;48.33;;;;;;;;5022982;28;9026;-74
2021/03/02 02:55:19;;;;;;;;;40.67;38.67;;;;;;;;5022697;28;8969;-73
2021/03/02 02:57:48;;;;;;;;;45.00;42.33;;;;;;;;5022003;28;8896;-73
2021/03/02 03:00:18;;;;;;;;;44.00;44.00;;;;;;;;5020892;28;8942;-73
2021/03/02 03:02:49;;;;;;;;;38.33;36.00;;;;;;;;5022387;28;8892;-75
2021/03/02 03:05:19;;;;;;;;;34.67;31.67;;;;;;;;5024196;28;8876;-74
2021/03/02 03:07:49;;;;;;;;;45.00;45.00;;;;;;;;5022811;28;8963;-74
2021/03/02 03:10:16;;;;;;;;;44.33;41.67;;;;;;;;5023133;28;8931;-76
2021/03/02 03:12:45;;;;;;;;;39.00;37.00;;;;;;;;5018918;28;8870;-74
2021/03/02 03:15:15;;;;;;;;;46.67;45.33;;;;;;;;5023794;28;9599;-76
2021/03/02 03:17:46;;;;;;;;;50.33;47.33;;;;;;;;5021795;28;8975;-73
2021/03/02 03:20:14;;;;;;;;;37.00;35.67;;;;;;;;5022781;28;8856;-75
2021/03/02 03:22:42;;;;;;;;;47.33;45.67;;;;;;;;5021265;28;8870;-73
2021/03/02 03:25:10;;;;;;;;;46.33;44.00;;;;;;;;5022824;28;8861;-73
2021/03/02 03:27:41;;;;;;;;;44.33;43.67;;;;;;;;5021781;28;8950;-73
2021/03/02 03:30:10;;;;;;;;;49.67;46.33;;;;;;;;5023322;28;8884;-74
2021/03/02 03:32:38;;;;;;;;;43.67;42.67;;;;;;;;4984030;28;8876;-77
2021/03/02 03:35:07;;;;;;;;;42.33;42.33;;;;;;;;4983228;28;8880;-73
2021/03/02 03:37:34;;;;;;;;;44.00;43.00;;;;;;;;4977493;28;8904;-76
2021/03/02 03:40:01;;;;;;;;;48.67;47.33;;;;;;;;4982626;28;8873;-74
2021/03/02 03:42:28;;;;;;;;;48.33;46.67;;;;;;;;4981297;28;8969;-73
2021/03/02 03:44:55;;;;;;;;;39.67;39.67;;;;;;;;4984430;28;9012;-73
2021/03/02 03:47:22;;;;;;;;;44.00;43.67;;;;;;;;4984425;28;8896;-74
2021/03/02 03:49:49;;;;;;;;;46.67;44.33;;;;;;;;4982842;28;9763;-76
2021/03/02 03:52:18;;;;;;;;;42.33;42.33;;;;;;;;4983649;28;8889;-73
2021/03/02 03:54:45;;;;;;;;;49.00;45.00;;;;;;;;4978619;28;8885;-79
2021/03/02 03:57:12;;;;;;;;;44.67;41.33;;;;;;;;4975542;28;8881;-74
2021/03/02 03:59:40;;;;;;;;;52.67;48.33;;;;;;;;4983431;28;8881;-76
2021/03/02 04:02:09;;;;;;;;;40.67;40.67;;;;;;;;4991876;28;8851;-74
2021/03/02 04:04:38;;;;;;;;;49.00;45.00;;;;;;;;4983423;28;9632;-75
2021/03/02 04:07:06;;;;;;;;;57.33;49.00;;;;;;;;4982078;28;8996;-76
2021/03/02 04:09:33;;;;;;;;;46.67;45.00;;;;;;;;4983414;28;8908;-75
2021/03/02 04:12:00;;;;;;;;;50.67;47.00;;;;;;;;4982159;28;8865;-80
2021/03/02 04:14:31;;;;;;;;;44.67;44.00;;;;;;;;4989391;28;8905;-76
2021/03/02 04:16:58;;;;;;;;;45.33;42.33;;;;;;;;4987901;28;8887;-76
2021/03/02 04:19:25;;;;;;;;;43.00;43.00;;;;;;;;4983049;28;8881;-75
2021/03/02 04:21:52;;;;;;;;;45.33;42.00;;;;;;;;4987274;28;9584;-76
2021/03/02 04:24:19;;;;;;;;;43.67;42.33;;;;;;;;4986955;28;8919;-77
2021/03/02 04:26:47;;;;;;;;;40.00;40.00;;;;;;;;4987312;28;8889;-76
2021/03/02 04:29:14;;;;;;;;;58.67;50.67;;;;;;;;4987083;28;8877;-78
2021/03/02 04:31:41;;;;;;;;;55.33;48.33;;;;;;;;5015057;28;8809;-76
2021/03/02 04:34:09;;;;;;;;;44.33;43.33;;;;;;;;5023904;28;8880;-78
2021/03/02 04:36:36;;;;;;;;;52.00;47.33;;;;;;;;5023816;28;9732;-78
2021/03/02 04:39:04;;;;;;;;;55.00;47.33;;;;;;;;5004915;28;8853;-81
2021/03/02 04:41:31;;;;;;;;;48.67;44.33;;;;;;;;5021872;28;8867;-74
2021/03/02 04:43:59;;;;;;;;;52.67;47.67;;;;;;;;5026485;28;8866;-80
2021/03/02 04:46:25;;;;;;;;;45.00;43.00;;;;;;;;5027167;28;8874;-75
2021/03/02 04:48:52;;;;;;;;;47.67;46.33;;;;;;;;5026945;28;8864;-76
2021/03/02 04:51:19;;;;;;;;;44.33;44.33;;;;;;;;5020561;28;8906;-73
2021/03/02 04:53:46;;;;;;;;;50.67;47.33;;;;;;;;5025990;28;8884;-72
2021/03/02 04:56:13;;;;;;;;;68.33;51.67;;;;;;;;5023333;28;10091;-76
2021/03/02 04:58:39;;;;;;;;;48.67;45.00;;;;;;;;5017422;28;8896;-72
2021/03/02 05:01:08;;;;;;;;;37.67;36.33;;;;;;;;5030141;28;8827;-73
2021/03/02 05:03:35;;;;;;;;;45.00;45.00;;;;;;;;5026046;28;8887;-74
2021/03/02 05:06:01;;;;;;;;;46.00;45.00;;;;;;;;5025033;28;8880;-73
2021/03/02 05:08:29;;;;;;;;;37.00;35.00;;;;;;;;5023246;28;8878;-73
2021/03/02 05:10:56;;;;;;;;;45.67;42.67;;;;;;;;5024988;28;8898;-74
2021/03/02 05:13:22;;;;;;;;;39.67;37.33;;;;;;;;5022451;28;8902;-73
2021/03/02 05:15:49;;;;;;;;;43.67;40.00;;;;;;;;5026465;28;9011;-74
2021/03/02 05:18:17;;;;;;;;;41.33;41.33;;;;;;;;5007924;28;9756;-73
2021/03/02 05:20:44;;;;;;;;;43.67;43.00;;;;;;;;5025230;28;8892;-74
2021/03/02 05:23:11;;;;;;;;;36.67;35.33;;;;;;;;5007699;28;8848;-74
2021/03/02 05:25:37;;;;;;;;;42.67;42.67;;;;;;;;5023643;28;8902;-76
2021/03/02 05:28:05;;;;;;;;;38.33;37.67;;;;;;;;5021849;28;8922;-73
2021/03/02 05:30:32;;;;;;;;;42.33;42.33;;;;;;;;5022945;28;8828;-75
2021/03/02 05:32:58;;;;;;;;;40.00;39.00;;;;;;;;5024260;28;8886;-73
2021/03/02 05:35:26;;;;;;;;;42.00;36.33;;;;;;;;5024580;28;9744;-75
2021/03/02 05:37:53;;;;;;;;;41.33;39.67;;;;;;;;5024874;28;8876;-75
2021/03/02 05:40:20;;;;;;;;;28.67;28.67;;;;;;;;5024659;28;8963;-71
2021/03/02 05:42:47;;;;;;;;;39.33;37.33;;;;;;;;5030745;28;8852;-71
2021/03/02 05:45:14;;;;;;;;;39.33;37.33;;;;;;;;5031081;28;8885;-72
2021/03/02 05:47:41;;;;;;;;;47.00;44.67;;;;;;;;5035689;28;8888;-73
2021/03/02 05:50:09;;;;;;;;;35.67;35.67;;;;;;;;5033420;28;8887;-72
2021/03/02 05:52:36;;;;;;;;;45.00;43.00;;;;;;;;5027265;28;8875;-71
2021/03/02 05:55:04;;;;;;;;;42.67;40.67;;;;;;;;5025602;28;9677;-74
2021/03/02 05:57:31;;;;;;;;;37.33;35.33;;;;;;;;5023609;28;9712;-71
2021/03/02 05:59:57;;;;;;;;;32.67;32.67;;;;;;;;5026133;28;8870;-72
2021/03/02 06:02:24;;;;;;;;;42.67;42.67;;;;;;;;5023884;28;8832;-72
2021/03/02 06:04:51;;;;;;;;;37.33;34.67;;;;;;;;5023757;28;8887;-72
2021/03/02 06:07:18;;;;;;;;;33.33;33.33;;;;;;;;5025695;28;8853;-71
2021/03/02 06:09:46;;;;;;;;;33.33;30.67;;;;;;;;5022561;28;8996;-73
2021/03/02 06:12:12;;;;;;;;;37.00;37.00;;;;;;;;5022936;28;8984;-70
2021/03/02 06:14:39;;;;;;;;;40.67;40.67;;;;;;;;5024504;28;8877;-70
2021/03/02 06:17:07;;;;;;;;;37.67;36.67;;;;;;;;5024786;28;8860;-69
2021/03/02 06:19:44;;;;;;;;;42.00;42.00;;;;;;;;5024339;28;9801;-69
2021/03/02 06:22:33;;;;;;;;;45.00;44.33;;;;;;;;5018553;28;8898;-71
2021/03/02 06:25:02;;;;;;;;;35.33;35.33;;;;;;;;5023370;28;8868;-69
2021/03/02 06:27:31;;;;;;;;;41.33;38.33;;;;;;;;5025818;28;8903;-70
2021/03/02 06:30:09;;;;;;;;;45.67;44.33;;;;;;;;5019000;28;8894;-70
2021/03/02 06:32:40;;;;;;;;;38.33;34.67;;;;;;;;5023098;28;8809;-69
2021/03/02 06:35:09;;;;;;;;;50.67;48.00;;;;;;;;5024530;28;8896;-69
2021/03/02 06:37:44;;;;;;;;;48.67;47.33;;;;;;;;5022309;28;8963;-72
2021/03/02 06:40:13;;;;;;;;;54.00;46.67;;;;;;;;5022070;28;8979;-70
2021/03/02 06:42:41;;;;;;;;;28.00;28.00;;;;;;;;5022778;28;8988;-71
2021/03/02 06:45:13;;;;;;;;;29.00;24.33;;;;;;;;5023459;28;8860;-71
2021/03/02 06:47:41;;;;;;;;;31.00;30.33;;;;;;;;5006247;28;8873;-74
2021/03/02 06:50:23;;;;;;;;;33.33;33.33;;;;;;;;5025635;28;8927;-72
2021/03/02 06:52:51;;;;;;;;;44.33;36.00;;;;;;;;5012263;28;9564;-73
2021/03/02 06:55:27;;;;;;;;;30.67;29.33;;;;;;;;5025711;28;8887;-71
2021/03/02 06:58:14;;;;;;;;;41.67;40.33;;;;;;;;5023012;28;8864;-71
2021/03/02 07:00:46;;;;;;;;;44.67;43.33;;;;;;;;5026060;28;8888;-74
2021/03/02 07:03:27;;;;;;;;;28.67;28.67;;;;;;;;5018149;28;8853;-70
2021/03/02 07:05:57;;;;;;;;;40.33;38.67;;;;;;;;5019745;28;8897;-72
2021/03/02 07:08:25;;;;;;;;;47.00;44.00;;;;;;;;5020634;28;8876;-70
2021/03/02 07:10:54;;;;;;;;;39.67;39.67;;;;;;;;5013681;28;8899;-73
2021/03/02 07:13:22;;;;;;;;;41.33;41.33;;;;;;;;5020031;28;8967;-71
2021/03/02 07:15:51;;;;;;;;;39.67;39.67;;;;;;;;5024429;28;8903;-71
2021/03/02 07:18:20;;;;;;;;;39.33;39.33;;;;;;;;5022855;28;9653;-71
2021/03/02 07:20:49;;;;;;;;;35.67;35.67;;;;;;;;5022798;28;8868;-71
2021/03/02 07:23:18;;;;;;;;;42.33;40.67;;;;;;;;5020890;28;9670;-69
2021/03/02 07:25:48;;;;;;;;;41.33;39.00;;;;;;;;5014035;28;8847;-70
2021/03/02 07:28:17;;;;;;;;;49.67;43.67;;;;;;;;5020771;28;8896;-72
2021/03/02 07:30:48;;;;;;;;;44.67;41.00;;;;;;;;5020192;28;8829;-72
2021/03/02 07:33:15;;;;;;;;;45.00;45.00;;;;;;;;5030305;28;8877;-70
2021/03/02 07:35:43;;;;;;;;;36.33;36.33;;;;;;;;5023223;28;8975;-69
2021/03/02 07:38:18;;;;;;;;;45.33;45.00;;;;;;;;5016470;28;8933;-72
2021/03/02 07:40:47;;;;;;;;;46.67;44.00;;;;;;;;5019277;28;9690;-70
2021/03/02 07:43:34;;;;;;;;;43.00;41.33;;;;;;;;5023858;28;9695;-71
2021/03/02 07:46:02;;;;;;;;;45.67;44.00;;;;;;;;5022908;28;8873;-71
2021/03/02 07:48:31;;;;;;;;;45.67;42.67;;;;;;;;5007804;28;8926;-70
2021/03/02 07:51:14;;;;;;;;;41.33;41.33;;;;;;;;5026620;28;8852;-70
2021/03/02 07:53:42;;;;;;;;;48.33;43.33;;;;;;;;5025167;28;9633;-70
2021/03/02 07:56:23;;;;;;;;;60.33;49.33;;;;;;;;5021149;28;8931;-70
2021/03/02 07:59:19;;;;;;;;;61.33;49.33;;;;;;;;5028496;28;8997;-71
2021/03/02 08:02:16;;;;;;;;;65.33;52.33;;;;;;;;5023493;28;8923;-70
2021/03/02 08:04:44;;;;;;;;;61.67;51.67;;;;;;;;5021707;28;8882;-71
2021/03/02 08:07:24;;;;;;;;;65.67;50.33;;;;;;;;5015597;28;8936;-71
2021/03/02 08:09:52;;;;;;;;;67.00;54.33;;;;;;;;5022538;28;8869;-71
2021/03/02 08:12:31;;;;;;;;;65.33;52.67;;;;;;;;5022490;28;8878;-71
2021/03/02 08:15:03;;;;;;;;;54.00;48.00;;;;;;;;5021704;28;8995;-71
2021/03/02 08:17:30;;;;;;;;;65.33;48.67;;;;;;;;5023618;28;8998;-71
2021/03/02 08:20:03;;;;;;;;;69.33;55.67;;;;;;;;5023835;28;8868;-71
2021/03/02 08:23:00;;;;;;;;;70.00;56.67;;;;;;;;5020387;28;8924;-70
2021/03/02 08:25:28;;;;;;;;;70.00;54.00;;;;;;;;4927020;29;8847;-70
2021/03/02 08:28:03;;;;;;;;;70.33;56.00;;;;;;;;5003924;28;8891;-70
2021/03/02 08:30:33;;;;;;;;;67.00;54.00;;;;;;;;5014389;28;8795;-71
2021/03/02 08:33:04;;;;;;;;;69.00;54.67;;;;;;;;5025422;28;8872;-71
2021/03/02 08:35:32;;;;;;;;;57.67;46.67;;;;;;;;5019209;28;8860;-71
2021/03/02 08:38:00;;;;;;;;;38.33;37.67;;;;;;;;5026004;28;8861;-71
2021/03/02 08:40:42;;;;;;;;;46.00;39.33;;;;;;;;5025428;28;8908;-72
2021/03/02 08:43:11;;;;;;;;;45.33;41.67;;;;;;;;5026473;28;11637;-71
2021/03/02 08:45:40;;;;;;;;;48.50;40.50;;;;;;;;5023100;28;11704;-70
2021/03/02 08:48:22;;;;;;;;;42.50;39.00;;;;;;;;5026870;28;11600;-71
2021/03/02 08:50:51;;;;;;;;;40.00;31.00;;;;;;;;5019159;28;11602;-71
2021/03/02 08:53:38;;;;;;;;;48.00;42.75;;;;;;;;5024913;28;11570;-71
2021/03/02 08:56:07;;;;;;;;;52.25;46.50;;;;;;;;5020654;28;12422;-71
2021/03/02 08:58:36;;;;;;;;;46.75;42.25;;;;;;;;5007829;28;11764;-71
2021/03/02 09:01:08;;;;;;;;;51.75;45.75;;;;;;;;5028965;28;11497;-71
2021/03/02 09:03:36;;;;;;;;;52.75;42.25;;;;;;;;5016379;28;12387;-72
2021/03/02 09:06:07;;;;;;;;;44.50;40.50;;;;;;;;5023067;28;12345;-72
2021/03/02 09:08:44;;;;;;;;;45.75;41.75;;;;;;;;5026059;28;11634;-72
2021/03/02 09:11:11;;;;;;;;;51.75;44.00;;;;;;;;5021424;28;11603;-72
2021/03/02 09:13:39;;;;;;;;;25.00;25.00;;;;;;;;5024464;28;12388;-72
2021/03/02 09:16:22;;;;;;;;;40.00;39.50;;;;;;;;5023729;28;11602;-71
2021/03/02 09:19:01;;;;;;;;;37.00;34.00;;;;;;;;5019538;28;11584;-73
2021/03/02 09:21:28;;;;;;;;;44.00;37.25;;;;;;;;5025425;28;11669;-72
2021/03/02 09:23:56;;;;;;;;;44.75;41.25;;;;;;;;5023257;28;11588;-72
2021/03/02 09:26:24;;;;;;;;;44.50;41.25;;;;;;;;5004737;28;11548;-72
2021/03/02 09:28:54;;;;;;;;;44.75;40.75;;;;;;;;5021813;28;11585;-72
2021/03/02 09:31:23;;;;;;;;;44.00;40.00;;;;;;;;5018369;28;12352;-74
2021/03/02 09:33:50;;;;;;;;;48.00;42.75;;;;;;;;5024981;28;11677;-72
2021/03/02 09:36:18;;;;;;;;;42.50;39.25;;;;;;;;5012974;28;11594;-71
2021/03/02 09:38:45;;;;;;;;;45.75;40.50;;;;;;;;5012603;28;12330;-71
2021/03/02 09:41:13;;;;;;;;;46.00;41.50;;;;;;;;5022544;28;11726;-71
2021/03/02 09:43:40;;;;;;;;;53.25;42.75;;;;;;;;5000953;28;11806;-71
2021/03/02 09:46:07;;;;;;;;;44.50;40.25;;;;;;;;5022596;28;11586;-71
2021/03/02 09:48:48;;;;;;;;;53.25;42.00;;;;;;;;5025720;28;11831;-71
2021/03/02 09:51:32;;;;;;;;;46.00;39.00;;;;;;;;5016438;28;13091;-71
2021/03/02 09:54:16;;;;;;;;;44.50;39.25;;;;;;;;5021089;28;11602;-71
2021/03/02 09:56:46;;;;;;;;;48.00;41.25;;;;;;;;5001731;28;11611;-72
2021/03/02 09:59:21;;;;;;;;;43.75;38.25;;;;;;;;5015812;28;11526;-72
2021/03/02 10:01:48;;;;;;;;;46.00;40.25;;;;;;;;5025644;28;11425;-72
2021/03/02 10:04:17;;;;;;;;;45.25;40.75;;;;;;;;5020123;28;11496;-72
2021/03/02 10:06:43;;;;;;;;;39.75;38.50;;;;;;;;5017354;28;11522;-72
2021/03/02 10:09:21;;;;;;;;;52.75;43.25;;;;;;;;5014100;28;11530;-72
2021/03/02 10:11:49;;;;;;;;;38.00;37.00;;;;;;;;5019535;28;11582;-71
2021/03/02 10:14:16;;;;;;;;;36.75;36.75;;;;;;;;5024035;28;11520;-72
2021/03/02 10:16:48;;;;;;;;;45.00;39.50;;;;;;;;5022553;28;12034;-72
2021/03/02 10:19:17;;;;;;;;;54.00;41.00;;;;;;;;5024525;28;11537;-70
2021/03/02 10:21:46;;;;;;;;;44.00;38.00;;;;;;;;5024129;28;11526;-70
2021/03/02 10:24:22;;;;;;;;;42.50;36.00;;;;;;;;5021745;28;11082;-71
2021/03/02 10:26:49;;;;;;;;;40.25;36.50;;;;;;;;5004446;28;10871;-70
2021/03/02 10:29:16;;;;;;;;;45.00;38.00;;;;;;;;5024082;28;11138;-71
2021/03/02 10:31:43;;;;;;;;;38.50;36.50;;;;;;;;5025061;28;10879;-72
2021/03/02 10:34:11;;;;;;;;;42.75;37.50;;;;;;;;5037328;28;10980;-71
2021/03/02 10:36:40;;;;;;;;;33.00;31.75;;;;;;;;5017936;28;11034;-71
2021/03/02 10:39:08;;;;;;;;;39.25;33.75;;;;;;;;5022470;28;10621;-71
2021/03/02 10:41:36;;;;;;;;;47.75;35.00;;;;;;;;5025181;28;10636;-71
2021/03/02 10:44:03;;;;;;;;;39.75;37.00;;;;;;;;5023502;28;10735;-71
2021/03/02 10:46:31;;;;;;;;;42.00;34.75;;;;;;;;5025114;28;10607;-71
2021/03/02 10:48:57;;;;;;;;;34.25;34.25;;;;;;;;5023972;28;10552;-71
2021/03/02 10:51:25;;;;;;;;;40.00;35.75;;;;;;;;5019590;28;10574;-71
2021/03/02 10:53:53;;;;;;;;;41.75;38.00;;;;;;;;5004508;28;10382;-71
2021/03/02 10:56:20;;;;;;;;;43.00;33.75;;;;;;;;5013827;28;10301;-72
2021/03/02 10:58:48;;;;;;;;;43.75;38.50;;;;;;;;5019643;28;10032;-71
2021/03/02 11:01:15;;;;;;;;;54.25;41.50;;;;;;;;5016862;28;12093;-72
2021/03/02 11:03:43;;;;;;;;;36.25;35.00;;;;;;;;5019948;28;10221;-72
2021/03/02 11:06:11;;;;;;;;;52.00;41.25;;;;;;;;5015684;28;9881;-72
2021/03/02 11:08:38;;;;;;;;;46.75;38.25;;;;;;;;5016020;28;10127;-72
2021/03/02 11:11:06;;;;;;;;;43.00;38.50;;;;;;;;5019407;28;10032;-72
2021/03/02 11:13:33;;;;;;;;;44.00;37.75;;;;;;;;5015084;28;10040;-71
2021/03/02 11:15:59;;;;;;;;;51.50;40.25;;;;;;;;5018182;28;10073;-72
2021/03/02 11:18:26;;;;;;;;;34.25;31.25;;;;;;;;5018459;28;10046;-72
2021/03/02 11:20:53;;;;;;;;;46.50;37.00;;;;;;;;5018112;28;9862;-72
2021/03/02 11:23:20;;;;;;;;;40.50;36.50;;;;;;;;5019775;28;9784;-71
2021/03/02 11:26:07;;;;;;;;;36.25;35.25;;;;;;;;5027619;28;9753;-72
2021/03/02 11:28:34;;;;;;;;;34.25;32.50;;;;;;;;5005250;28;9688;-72
2021/03/02 11:31:01;;;;;;;;;42.50;38.00;;;;;;;;5022670;28;9451;-71
2021/03/02 11:33:28;;;;;;;;;44.75;36.00;;;;;;;;5028090;28;9760;-73
2021/03/02 11:35:55;;;;;;;;;36.33;32.00;;;;;;;;5025458;28;9675;-72
2021/03/02 11:38:23;;;;;;;;;37.00;33.33;;;;;;;;5027917;28;9345;-73
2021/03/02 11:40:49;;;;;;;;;30.33;29.00;;;;;;;;5022005;28;9260;-72
2021/03/02 11:43:17;;;;;;;;;37.00;33.33;;;;;;;;5022282;28;9260;-73
2021/03/02 11:45:47;;;;;;;;;39.67;32.67;;;;;;;;5005806;28;9094;-72
2021/03/02 11:48:13;;;;;;;;;34.00;33.33;;;;;;;;5028251;28;9797;-73
2021/03/02 11:50:40;;;;;;;;;35.00;33.33;;;;;;;;5023159;28;9227;-72
2021/03/02 11:53:07;;;;;;;;;37.67;34.67;;;;;;;;5020104;28;9176;-72
2021/03/02 11:55:34;;;;;;;;;33.00;30.67;;;;;;;;5025550;28;9101;-72
2021/03/02 11:58:01;;;;;;;;;35.67;33.33;;;;;;;;5015291;28;8985;-71
2021/03/02 12:00:28;;;;;;;;;38.00;34.00;;;;;;;;5025244;28;9715;-72
2021/03/02 12:02:55;;;;;;;;;46.67;36.00;;;;;;;;5027458;28;9109;-72
2021/03/02 12:05:22;;;;;;;;;33.00;32.50;;;;;;;;5023167;28;9088;-72
2021/03/02 12:07:51;;;;;;;;;40.50;35.00;;;;;;;;5027240;28;8860;-71
2021/03/02 12:10:19;;;;;;;;;36.25;32.75;;;;;;;;5021449;28;8901;-72
2021/03/02 12:12:46;;;;;;;;;43.50;36.75;;;;;;;;5020303;28;9023;-73
2021/03/02 12:15:13;;;;;;;;;34.00;32.25;;;;;;;;5021061;28;8870;-72
2021/03/02 12:17:40;;;;;;;;;35.50;34.25;;;;;;;;5021717;28;8956;-72
2021/03/02 12:20:10;;;;;;;;;32.75;32.00;;;;;;;;5022349;28;8963;-73
2021/03/02 12:22:37;;;;;;;;;40.50;36.25;;;;;;;;5023818;28;8982;-73
2021/03/02 12:25:06;;;;;;;;;37.25;34.75;;;;;;;;5027370;28;8864;-72
2021/03/02 12:27:33;;;;;;;;;33.00;31.50;;;;;;;;5025768;28;8934;-72
2021/03/02 12:30:00;;;;;;;;;34.50;33.00;;;;;;;;5025995;28;8888;-73
2021/03/02 12:32:29;;;;;;;;;41.75;34.00;;;;;;;;5024264;28;8860;-71
2021/03/02 12:34:56;;;;;;;;;33.75;32.50;;;;;;;;5026332;28;8927;-72
2021/03/02 12:37:24;;;;;;;;;44.50;37.00;;;;;;;;5021106;28;8895;-72
2021/03/02 12:39:51;;;;;;;;;39.75;35.50;;;;;;;;5019154;28;9004;-72
2021/03/02 12:42:18;;;;;;;;;36.25;32.00;;;;;;;;5026441;28;8849;-72
2021/03/02 12:44:45;;;;;;;;;37.25;33.00;;;;;;;;5021528;28;8986;-72
2021/03/02 12:47:12;;;;;;;;;34.25;31.50;;;;;;;;5007750;28;8903;-71
2021/03/02 12:49:39;;;;;;;;;36.75;33.75;;;;;;;;5023239;28;8872;-71
2021/03/02 12:52:07;;;;;;;;;30.00;27.75;;;;;;;;5025435;28;8909;-72
2021/03/02 12:54:35;;;;;;;;;28.75;27.00;;;;;;;;5023593;28;8895;-71
2021/03/02 12:57:02;;;;;;;;;38.00;34.25;;;;;;;;5026644;28;8861;-73
2021/03/02 12:59:29;;;;;;;;;34.75;32.50;;;;;;;;5037824;28;8829;-73
2021/03/02 13:01:56;;;;;;;;;37.00;31.50;;;;;;;;5032820;28;8805;-73
2021/03/02 13:04:23;;;;;;;;;36.00;34.50;;;;;;;;5028007;28;8892;-74
2021/03/02 13:06:50;;;;;;;;;36.25;33.25;;;;;;;;5024120;28;8873;-73
2021/03/02 13:09:17;;;;;;;;;31.00;31.00;;;;;;;;5026103;28;8974;-73
2021/03/02 13:11:46;;;;;;;;;34.25;32.25;;;;;;;;5025270;28;8868;-75
2021/03/02 13:14:13;;;;;;;;;39.50;34.50;;;;;;;;5020780;28;8895;-73
2021/03/02 13:16:40;;;;;;;;;44.50;35.25;;;;;;;;5023396;28;8867;-73
2021/03/02 13:19:08;;;;;;;;;44.50;36.25;;;;;;;;5018703;28;8856;-73
2021/03/02 13:21:35;;;;;;;;;38.75;33.75;;;;;;;;5023103;28;9698;-72
2021/03/02 13:24:02;;;;;;;;;35.00;33.75;;;;;;;;5025609;28;8864;-72
2021/03/02 13:26:31;;;;;;;;;32.25;30.25;;;;;;;;5025784;28;8869;-71
2021/03/02 13:29:03;;;;;;;;;33.00;31.50;;;;;;;;5024105;28;8864;-73
2021/03/02 13:31:30;;;;;;;;;42.75;34.25;;;;;;;;5016881;28;8927;-73
2021/03/02 13:33:59;;;;;;;;;38.50;34.75;;;;;;;;5029444;28;8845;-73
2021/03/02 13:36:26;;;;;;;;;34.00;32.25;;;;;;;;5023060;28;8852;-71
2021/03/02 13:38:53;;;;;;;;;39.00;34.25;;;;;;;;5023833;28;8929;-73
2021/03/02 13:41:20;;;;;;;;;41.25;35.25;;;;;;;;5024440;28;8908;-73
2021/03/02 13:43:48;;;;;;;;;49.00;37.75;;;;;;;;5021974;28;9602;-73
2021/03/02 13:46:16;;;;;;;;;38.50;34.75;;;;;;;;5023640;28;8864;-73
2021/03/02 13:48:43;;;;;;;;;38.50;35.25;;;;;;;;5025841;28;8919;-72
2021/03/02 13:51:11;;;;;;;;;40.75;35.00;;;;;;;;5014629;28;8882;-73
2021/03/02 13:53:38;;;;;;;;;42.75;35.00;;;;;;;;5025050;28;9575;-74
2021/03/02 13:56:06;;;;;;;;;35.50;34.00;;;;;;;;5023829;28;8852;-74
2021/03/02 13:58:33;;;;;;;;;37.50;33.00;;;;;;;;5019361;28;9591;-73
2021/03/02 14:00:59;;;;;;;;;40.75;33.75;;;;;;;;5027740;28;8796;-73
2021/03/02 14:03:30;;;;;;;;;38.50;34.25;;;;;;;;5024156;28;8868;-73
2021/03/02 14:05:59;;;;;;;;;41.00;35.50;;;;;;;;5023402;28;8868;-74
2021/03/02 14:08:27;;;;;;;;;38.50;34.50;;;;;;;;5024596;28;8877;-73
2021/03/02 14:10:53;;;;;;;;;39.25;35.50;;;;;;;;5024971;28;8881;-73
2021/03/02 14:13:20;;;;;;;;;44.50;34.50;;;;;;;;5023172;28;9627;-74
2021/03/02 14:15:48;;;;;;;;;42.50;37.25;;;;;;;;5023271;28;8848;-73
2021/03/02 14:18:16;;;;;;;;;33.25;32.25;;;;;;;;5025599;28;9615;-72
2021/03/02 14:20:44;;;;;;;;;37.25;34.75;;;;;;;;5020890;28;9636;-73
2021/03/02 14:23:11;;;;;;;;;44.00;38.25;;;;;;;;5021025;28;8873;-73
2021/03/02 14:25:38;;;;;;;;;42.50;36.00;;;;;;;;5023103;28;8906;-72
2021/03/02 14:28:05;;;;;;;;;42.25;36.25;;;;;;;;5022766;28;8852;-72
2021/03/02 14:30:32;;;;;;;;;41.50;36.50;;;;;;;;5017123;28;8825;-73
2021/03/02 14:32:59;;;;;;;;;40.75;34.50;;;;;;;;5024352;28;8896;-72
2021/03/02 14:35:26;;;;;;;;;41.25;36.25;;;;;;;;5022387;28;8872;-72
2021/03/02 14:37:54;;;;;;;;;41.25;34.50;;;;;;;;5023814;28;8886;-73
2021/03/02 14:40:21;;;;;;;;;43.25;37.50;;;;;;;;5024237;28;8857;-73